createdAt,value
2023-03-06T00:01:38.342Z,5.80
2023-03-06T00:06:40.497Z,5.80
2023-03-06T00:11:44.103Z,5.80
2023-03-06T00:16:46.277Z,5.70
2023-03-06T00:21:48.346Z,5.60
2023-03-06T00:26:51.933Z,5.60
2023-03-06T00:31:54.140Z,5.50
2023-03-06T00:36:56.238Z,5.40
2023-03-06T00:41:59.738Z,5.30
2023-03-06T00:47:01.913Z,5.20
2023-03-06T00:52:04.573Z,5.10
2023-03-06T00:57:08.505Z,5.00
2023-03-06T01:02:10.730Z,5.00
2023-03-06T01:07:12.971Z,5.00
2023-03-06T01:12:16.564Z,5.10
2023-03-06T01:17:18.672Z,5.20
2023-03-06T01:22:20.940Z,5.30
2023-03-06T01:27:24.584Z,5.40
2023-03-06T01:32:26.774Z,5.40
2023-03-06T01:37:29.016Z,5.50
2023-03-06T01:42:33.050Z,5.50
2023-03-06T01:47:35.440Z,5.50
2023-03-06T01:52:44.050Z,5.40
2023-03-06T01:57:50.663Z,5.40
2023-03-06T02:02:55.603Z,5.30
2023-03-06T02:07:58.336Z,5.30
2023-03-06T02:13:02.688Z,5.20
2023-03-06T02:18:04.899Z,5.20
2023-03-06T02:23:11.579Z,5.10
2023-03-06T02:28:18.449Z,5.10
2023-03-06T02:33:23.523Z,5.10
2023-03-06T02:38:29.775Z,5.10
2023-03-06T02:43:36.845Z,5.10
2023-03-06T02:48:38.664Z,5.20
2023-03-06T02:53:40.802Z,5.20
2023-03-06T02:58:44.373Z,5.20
2023-03-06T03:03:46.526Z,5.20
2023-03-06T03:08:48.604Z,5.10
2023-03-06T03:13:52.213Z,5.20
2023-03-06T03:18:54.498Z,5.20
2023-03-06T03:23:56.663Z,5.20
2023-03-06T03:29:00.158Z,5.20
2023-03-06T03:34:03.521Z,5.20
2023-03-06T03:39:06.029Z,5.20
2023-03-06T03:44:09.734Z,5.10
2023-03-06T03:49:11.920Z,5.10
2023-03-06T03:54:14.072Z,5.10
2023-03-06T03:59:17.742Z,5.10
2023-03-06T04:04:19.881Z,5.10
2023-03-06T04:09:22.459Z,5.00
2023-03-06T04:14:26.064Z,5.00
2023-03-06T04:19:28.268Z,5.00
2023-03-06T04:24:30.438Z,5.00
2023-03-06T04:29:34.085Z,5.10
2023-03-06T04:34:36.334Z,5.10
2023-03-06T04:39:38.450Z,5.10
2023-03-06T04:44:42.225Z,5.00
2023-03-06T04:49:44.398Z,5.00
2023-03-06T04:54:46.461Z,4.90
2023-03-06T04:59:50.068Z,4.90
2023-03-06T05:04:52.271Z,4.80
2023-03-06T05:09:54.600Z,4.70
2023-03-06T05:14:58.223Z,4.70
2023-03-06T05:20:00.314Z,4.60
2023-03-06T05:25:02.678Z,4.50
2023-03-06T05:30:07.994Z,4.50
2023-03-06T05:35:16.723Z,4.40
2023-03-06T05:40:21.798Z,4.30
2023-03-06T05:45:28.436Z,4.20
2023-03-06T05:56:04.163Z,4.20
2023-03-06T06:01:15.031Z,4.20
2023-03-06T06:06:26.559Z,4.20
2023-03-06T06:11:32.501Z,4.30
2023-03-06T06:16:52.960Z,4.30
2023-03-06T06:22:03.546Z,4.40
2023-03-06T06:27:06.904Z,4.40
2023-03-06T06:37:45.424Z,4.30
2023-03-06T06:42:48.661Z,4.30
2023-03-06T06:47:56.368Z,4.40
2023-03-06T06:58:53.821Z,4.90
2023-03-06T07:04:34.686Z,5.30
2023-03-06T07:09:40.587Z,6.00
2023-03-06T07:14:43.442Z,6.80
2023-03-06T07:19:55.969Z,7.80
2023-03-06T07:24:59.028Z,8.70
2023-03-06T07:30:02.004Z,9.40
2023-03-06T07:35:19.697Z,9.70
2023-03-06T07:40:23.682Z,9.90
2023-03-06T07:45:47.164Z,9.90
2023-03-06T07:51:17.618Z,9.70
2023-03-06T07:56:20.670Z,9.60
2023-03-06T08:01:24.040Z,9.50
2023-03-06T08:06:40.370Z,9.50
2023-03-06T08:11:55.163Z,9.50
2023-03-06T08:17:03.741Z,10.00
2023-03-06T08:22:32.015Z,11.00
2023-03-06T08:27:35.718Z,12.00
2023-03-06T08:32:43.402Z,12.90
2023-03-06T08:38:09.699Z,13.50
2023-03-06T08:43:15.545Z,14.20
2023-03-06T08:48:18.208Z,15.10
2023-03-06T08:53:25.896Z,15.80
2023-03-06T08:58:51.073Z,16.50
2023-03-06T09:03:58.321Z,17.00
2023-03-06T09:09:03.968Z,17.20
2023-03-06T09:14:20.733Z,17.40
2023-03-06T09:19:26.505Z,17.80
2023-03-06T09:24:31.849Z,18.30
2023-03-06T09:29:38.637Z,18.70
2023-03-06T09:34:44.719Z,18.80
2023-03-06T09:39:47.470Z,18.90
2023-03-06T09:44:54.947Z,18.90
2023-03-06T09:50:24.467Z,18.90
2023-03-06T09:55:31.418Z,19.00
2023-03-06T10:00:40.811Z,19.20
2023-03-06T10:06:03.291Z,19.10
2023-03-06T10:11:10.358Z,18.50
2023-03-06T10:16:26.983Z,17.70
2023-03-06T10:27:49.682Z,16.80
2023-03-06T10:32:57.270Z,16.40
2023-03-06T10:38:26.593Z,16.10
2023-03-06T10:43:36.270Z,15.90
2023-03-06T10:48:43.396Z,15.80
2023-03-06T10:53:59.272Z,15.80
2023-03-06T10:59:20.327Z,15.70
2023-03-06T11:04:33.005Z,15.50
2023-03-06T11:09:41.062Z,15.30
2023-03-06T11:14:46.689Z,15.10
2023-03-06T11:19:52.264Z,14.70
2023-03-06T11:24:56.180Z,14.50
2023-03-06T11:30:02.830Z,14.30
2023-03-06T11:35:22.667Z,14.10
2023-03-06T11:40:31.759Z,13.90
2023-03-06T11:45:41.396Z,13.60
2023-03-06T11:50:48.512Z,13.40
2023-03-06T11:56:03.902Z,13.20
2023-03-06T12:01:22.339Z,13.00
2023-03-06T12:06:38.400Z,12.90
2023-03-06T12:11:51.161Z,12.80
2023-03-06T12:17:15.854Z,12.70
2023-03-06T12:22:41.270Z,12.50
2023-03-06T12:28:01.404Z,12.20
2023-03-06T12:33:20.218Z,11.90
2023-03-06T12:38:40.033Z,11.50
2023-03-06T12:44:22.077Z,11.20
2023-03-06T12:49:32.608Z,10.90
2023-03-06T12:54:38.873Z,10.90
2023-03-06T12:59:47.620Z,11.20
2023-03-06T13:05:15.443Z,11.40
2023-03-06T13:10:23.197Z,11.50
2023-03-06T13:15:41.225Z,11.60
2023-03-06T13:20:45.537Z,11.60
2023-03-06T13:25:52.589Z,11.60
2023-03-06T13:30:59.773Z,11.60
2023-03-06T13:36:24.643Z,11.70
2023-03-06T13:41:40.808Z,11.80
2023-03-06T13:46:57.653Z,12.00
2023-03-06T13:52:09.055Z,12.00
2023-03-06T13:57:30.789Z,12.00
2023-03-06T14:03:16.363Z,11.80
2023-03-06T14:08:21.242Z,11.70
2023-03-06T14:13:34.969Z,11.80
2023-03-06T14:18:44.594Z,11.80
2023-03-06T14:30:19.079Z,12.00
2023-03-06T14:35:26.929Z,11.90
2023-03-06T14:40:33.251Z,11.70
2023-03-06T14:45:35.425Z,11.50
2023-03-06T14:50:41.091Z,11.30
2023-03-06T14:55:49.088Z,11.10
2023-03-06T15:00:53.049Z,10.90
2023-03-06T15:05:57.037Z,10.80
2023-03-06T15:11:01.096Z,10.70
2023-03-06T15:16:05.648Z,10.60
2023-03-06T15:21:15.908Z,10.60
2023-03-06T15:26:29.275Z,10.50
2023-03-06T15:31:32.610Z,10.40
2023-03-06T15:36:38.281Z,10.20
2023-03-06T15:41:40.445Z,10.10
2023-03-06T15:46:42.791Z,9.90
2023-03-06T15:51:46.298Z,9.70
2023-03-06T15:56:49.833Z,9.50
2023-03-06T16:01:52.601Z,9.30
2023-03-06T16:06:56.229Z,9.20
2023-03-06T16:11:59.420Z,9.00
2023-03-06T16:17:01.552Z,9.00
2023-03-06T16:22:05.463Z,8.80
2023-03-06T16:27:15.082Z,8.80
2023-03-06T16:32:17.323Z,8.70
2023-03-06T16:37:20.946Z,8.60
2023-03-06T16:42:23.270Z,8.60
2023-03-06T16:47:25.492Z,8.50
2023-03-06T16:52:29.065Z,8.40
2023-03-06T16:57:31.330Z,8.30
2023-03-06T17:02:33.621Z,8.10
2023-03-06T17:07:38.011Z,8.00
2023-03-06T17:12:40.342Z,7.90
2023-03-06T17:17:42.574Z,7.70
2023-03-06T17:22:46.286Z,7.60
2023-03-06T17:27:48.526Z,7.60
2023-03-06T17:32:50.721Z,7.50
2023-03-06T17:37:54.274Z,7.40
2023-03-06T17:42:56.357Z,7.30
2023-03-06T17:47:58.489Z,7.30
2023-03-06T17:53:02.023Z,7.20
2023-03-06T17:58:04.250Z,7.20
2023-03-06T18:03:06.816Z,7.10
2023-03-06T18:08:10.349Z,7.10
2023-03-06T18:13:12.519Z,7.10
2023-03-06T18:18:14.740Z,7.10
2023-03-06T18:23:18.339Z,7.00
2023-03-06T18:28:20.660Z,7.00
2023-03-06T18:33:22.766Z,7.00
2023-03-06T18:38:26.299Z,6.90
2023-03-06T18:43:28.456Z,7.00
2023-03-06T18:48:30.644Z,7.00
2023-03-06T18:53:34.691Z,7.00
2023-03-06T18:58:36.898Z,7.10
2023-03-06T19:03:39.531Z,7.10
2023-03-06T19:08:43.611Z,7.10
2023-03-06T19:13:45.723Z,7.10
2023-03-06T19:18:47.860Z,7.00
2023-03-06T19:23:51.420Z,6.80
2023-03-06T19:28:53.529Z,6.70
2023-03-06T19:33:56.621Z,6.50
2023-03-06T19:39:01.741Z,6.30
2023-03-06T19:44:04.091Z,6.20
2023-03-06T19:49:06.283Z,6.00
2023-03-06T19:54:11.335Z,5.90
2023-03-06T19:59:13.437Z,5.80
2023-03-06T20:04:16.100Z,5.60
2023-03-06T20:09:19.700Z,5.50
2023-03-06T20:14:21.833Z,5.40
2023-03-06T20:19:23.983Z,5.30
2023-03-06T20:24:27.602Z,5.20
2023-03-06T20:29:30.899Z,5.20
2023-03-06T20:34:33.198Z,5.20
2023-03-06T20:39:37.774Z,5.10
2023-03-06T20:44:40.445Z,5.00
2023-03-06T20:49:42.617Z,5.00
2023-03-06T20:54:46.260Z,5.00
2023-03-06T20:59:48.391Z,4.90
2023-03-06T21:05:21.303Z,4.90
2023-03-06T21:10:28.333Z,4.90
2023-03-06T21:15:50.814Z,5.00
2023-03-06T21:20:53.058Z,4.90
2023-03-06T21:25:56.594Z,4.90
2023-03-06T21:31:00.758Z,4.90
2023-03-06T21:36:03.629Z,4.90
2023-03-06T21:41:12.893Z,5.00
2023-03-06T21:46:15.219Z,5.00
2023-03-06T21:51:19.112Z,5.10
2023-03-06T21:56:24.742Z,5.20
2023-03-06T22:01:28.966Z,5.20
2023-03-06T22:06:32.201Z,5.30
2023-03-06T22:11:35.880Z,5.30
2023-03-06T22:16:38.009Z,5.30
2023-03-06T22:21:40.229Z,5.40
2023-03-06T22:26:43.755Z,5.40
2023-03-06T22:31:45.945Z,5.40
2023-03-06T22:36:48.314Z,5.40
2023-03-06T22:41:54.548Z,5.50
2023-03-06T22:46:56.730Z,5.50
2023-03-06T22:51:58.885Z,5.60
2023-03-06T22:57:02.423Z,5.60
2023-03-06T23:02:04.759Z,5.70
2023-03-06T23:07:07.091Z,5.70
2023-03-06T23:12:10.768Z,5.70
2023-03-06T23:17:12.956Z,5.70
2023-03-06T23:22:15.110Z,5.80
2023-03-06T23:27:18.813Z,5.80
2023-03-06T23:32:21.086Z,5.80
2023-03-06T23:37:23.382Z,5.80
2023-03-06T23:42:26.992Z,5.80
2023-03-06T23:47:32.421Z,5.80
2023-03-06T23:52:34.560Z,5.80
2023-03-06T23:57:38.294Z,5.80
